Terminal Aerodrome Forecast
Issued by NWS

Home | Current Version | Previous Version | Text Only | Print | Product List | Glossary On
Versions: 1 2 3 4 5 6 7 8 9 10 11 12 13 14 15 16 17
000
FTUS44 KTSA 221721
TAFRVS
TAF
KRVS 221721Z 2218/2318 34011G26KT P6SM SCT015 BKN025
     FM222100 34013G23KT P6SM BKN035
     FM230100 33008KT P6SM SKC=

USA.gov is the U.S. government's official web portal to all federal, state and local government web resources and services.